sensor_id;sensor_type;location;lat;lon;timestamp;P1;durP1;ratioP1;P2;durP2;ratioP2
2622;SDS011;1321;48.690;9.022;2023-12-29T00:02:24;5.40;;;5.10;;
2622;SDS011;1321;48.690;9.022;2023-12-29T00:04:52;5.53;;;5.37;;
2622;SDS011;1321;48.690;9.022;2023-12-29T00:07:20;5.53;;;5.33;;
2622;SDS011;1321;48.690;9.022;2023-12-29T00:09:50;5.87;;;5.40;;
2622;SDS011;1321;48.690;9.022;2023-12-29T00:12:18;5.07;;;4.97;;
2622;SDS011;1321;48.690;9.022;2023-12-29T00:14:47;5.40;;;5.20;;
2622;SDS011;1321;48.690;9.022;2023-12-29T00:17:16;5.83;;;5.63;;
2622;SDS011;1321;48.690;9.022;2023-12-29T00:19:44;5.60;;;5.40;;
2622;SDS011;1321;48.690;9.022;2023-12-29T00:22:12;5.80;;;5.60;;
2622;SDS011;1321;48.690;9.022;2023-12-29T00:24:40;5.30;;;5.10;;
2622;SDS011;1321;48.690;9.022;2023-12-29T00:27:10;5.17;;;5.07;;
2622;SDS011;1321;48.690;9.022;2023-12-29T00:29:39;5.00;;;4.80;;
2622;SDS011;1321;48.690;9.022;2023-12-29T00:32:07;5.70;;;5.50;;
2622;SDS011;1321;48.690;9.022;2023-12-29T00:34:35;5.40;;;5.30;;
2622;SDS011;1321;48.690;9.022;2023-12-29T00:37:04;5.70;;;5.40;;
2622;SDS011;1321;48.690;9.022;2023-12-29T00:39:35;5.40;;;5.10;;
2622;SDS011;1321;48.690;9.022;2023-12-29T00:42:06;5.87;;;5.67;;
2622;SDS011;1321;48.690;9.022;2023-12-29T00:44:36;6.70;;;6.40;;
2622;SDS011;1321;48.690;9.022;2023-12-29T00:47:05;5.80;;;5.60;;
2622;SDS011;1321;48.690;9.022;2023-12-29T00:49:34;6.17;;;5.70;;
2622;SDS011;1321;48.690;9.022;2023-12-29T00:52:05;5.70;;;5.50;;
2622;SDS011;1321;48.690;9.022;2023-12-29T00:54:33;5.20;;;5.10;;
2622;SDS011;1321;48.690;9.022;2023-12-29T00:57:02;5.77;;;5.67;;
2622;SDS011;1321;48.690;9.022;2023-12-29T00:59:30;6.10;;;5.90;;
2622;SDS011;1321;48.690;9.022;2023-12-29T01:02:00;6.40;;;6.10;;
2622;SDS011;1321;48.690;9.022;2023-12-29T01:04:28;6.60;;;6.40;;
2622;SDS011;1321;48.690;9.022;2023-12-29T01:06:56;6.43;;;6.23;;
2622;SDS011;1321;48.690;9.022;2023-12-29T01:09:25;6.90;;;6.70;;
2622;SDS011;1321;48.690;9.022;2023-12-29T01:11:54;5.60;;;5.40;;
2622;SDS011;1321;48.690;9.022;2023-12-29T01:14:22;5.60;;;5.40;;
2622;SDS011;1321;48.690;9.022;2023-12-29T01:16:50;6.97;;;6.67;;
2622;SDS011;1321;48.690;9.022;2023-12-29T01:19:20;6.10;;;5.90;;
2622;SDS011;1321;48.690;9.022;2023-12-29T01:21:48;6.17;;;5.87;;
2622;SDS011;1321;48.690;9.022;2023-12-29T01:24:16;6.10;;;5.77;;
2622;SDS011;1321;48.690;9.022;2023-12-29T01:26:52;6.43;;;6.13;;
2622;SDS011;1321;48.690;9.022;2023-12-29T01:29:20;6.67;;;6.37;;
2622;SDS011;1321;48.690;9.022;2023-12-29T01:31:48;5.57;;;5.40;;
2622;SDS011;1321;48.690;9.022;2023-12-29T01:34:17;6.40;;;6.10;;
2622;SDS011;1321;48.690;9.022;2023-12-29T01:36:47;6.50;;;6.10;;
2622;SDS011;1321;48.690;9.022;2023-12-29T01:39:15;6.23;;;5.93;;
2622;SDS011;1321;48.690;9.022;2023-12-29T01:41:43;6.30;;;6.00;;
2622;SDS011;1321;48.690;9.022;2023-12-29T01:44:20;6.50;;;6.10;;
2622;SDS011;1321;48.690;9.022;2023-12-29T01:46:50;6.07;;;5.87;;
2622;SDS011;1321;48.690;9.022;2023-12-29T01:49:19;6.30;;;6.00;;
2622;SDS011;1321;48.690;9.022;2023-12-29T01:51:50;6.50;;;6.20;;
2622;SDS011;1321;48.690;9.022;2023-12-29T01:54:21;5.87;;;5.67;;
2622;SDS011;1321;48.690;9.022;2023-12-29T01:56:50;6.40;;;6.10;;
2622;SDS011;1321;48.690;9.022;2023-12-29T01:59:21;6.47;;;6.17;;
2622;SDS011;1321;48.690;9.022;2023-12-29T02:01:53;6.20;;;5.90;;
2622;SDS011;1321;48.690;9.022;2023-12-29T02:04:23;6.27;;;5.97;;
2622;SDS011;1321;48.690;9.022;2023-12-29T02:06:54;6.10;;;5.80;;
2622;SDS011;1321;48.690;9.022;2023-12-29T02:09:22;7.80;;;7.10;;
2622;SDS011;1321;48.690;9.022;2023-12-29T02:11:51;6.53;;;6.13;;
2622;SDS011;1321;48.690;9.022;2023-12-29T02:14:19;6.17;;;5.97;;
2622;SDS011;1321;48.690;9.022;2023-12-29T02:16:51;6.57;;;6.30;;
2622;SDS011;1321;48.690;9.022;2023-12-29T02:19:37;6.27;;;5.97;;
2622;SDS011;1321;48.690;9.022;2023-12-29T02:22:09;6.13;;;5.83;;
2622;SDS011;1321;48.690;9.022;2023-12-29T02:24:38;6.40;;;6.20;;
2622;SDS011;1321;48.690;9.022;2023-12-29T02:27:10;6.40;;;6.20;;
2622;SDS011;1321;48.690;9.022;2023-12-29T02:29:48;6.30;;;6.00;;
2622;SDS011;1321;48.690;9.022;2023-12-29T02:32:23;6.50;;;6.20;;
2622;SDS011;1321;48.690;9.022;2023-12-29T02:34:55;6.80;;;6.50;;
2622;SDS011;1321;48.690;9.022;2023-12-29T02:37:25;6.53;;;6.33;;
2622;SDS011;1321;48.690;9.022;2023-12-29T02:39:55;7.37;;;6.97;;
2622;SDS011;1321;48.690;9.022;2023-12-29T02:42:26;6.90;;;6.50;;
2622;SDS011;1321;48.690;9.022;2023-12-29T02:44:54;7.60;;;7.30;;
2622;SDS011;1321;48.690;9.022;2023-12-29T02:47:22;7.27;;;6.87;;
2622;SDS011;1321;48.690;9.022;2023-12-29T02:49:50;7.00;;;6.60;;
2622;SDS011;1321;48.690;9.022;2023-12-29T02:52:19;6.80;;;6.50;;
2622;SDS011;1321;48.690;9.022;2023-12-29T02:54:47;7.47;;;6.97;;
2622;SDS011;1321;48.690;9.022;2023-12-29T02:57:15;7.00;;;6.70;;
2622;SDS011;1321;48.690;9.022;2023-12-29T02:59:45;7.23;;;6.83;;
2622;SDS011;1321;48.690;9.022;2023-12-29T03:02:13;7.40;;;7.10;;
2622;SDS011;1321;48.690;9.022;2023-12-29T03:04:41;7.60;;;7.30;;
2622;SDS011;1321;48.690;9.022;2023-12-29T03:07:09;7.10;;;6.80;;
2622;SDS011;1321;48.690;9.022;2023-12-29T03:09:38;8.03;;;7.63;;
2622;SDS011;1321;48.690;9.022;2023-12-29T03:12:06;7.73;;;7.33;;
2622;SDS011;1321;48.690;9.022;2023-12-29T03:14:34;7.73;;;7.43;;
2622;SDS011;1321;48.690;9.022;2023-12-29T03:17:04;6.80;;;6.50;;
2622;SDS011;1321;48.690;9.022;2023-12-29T03:19:32;7.43;;;7.13;;
2622;SDS011;1321;48.690;9.022;2023-12-29T03:22:01;7.03;;;6.73;;
2622;SDS011;1321;48.690;9.022;2023-12-29T03:24:29;6.97;;;6.63;;
2622;SDS011;1321;48.690;9.022;2023-12-29T03:26:57;7.00;;;6.80;;
2622;SDS011;1321;48.690;9.022;2023-12-29T03:29:26;7.13;;;6.93;;
2622;SDS011;1321;48.690;9.022;2023-12-29T03:31:54;7.50;;;7.20;;
2622;SDS011;1321;48.690;9.022;2023-12-29T03:34:23;7.60;;;7.30;;
2622;SDS011;1321;48.690;9.022;2023-12-29T03:36:52;7.70;;;7.10;;
2622;SDS011;1321;48.690;9.022;2023-12-29T03:39:20;7.00;;;6.80;;
2622;SDS011;1321;48.690;9.022;2023-12-29T03:41:48;8.27;;;7.97;;
2622;SDS011;1321;48.690;9.022;2023-12-29T03:44:16;7.43;;;7.13;;
2622;SDS011;1321;48.690;9.022;2023-12-29T03:46:44;7.50;;;7.20;;
2622;SDS011;1321;48.690;9.022;2023-12-29T03:49:13;6.90;;;6.70;;
2622;SDS011;1321;48.690;9.022;2023-12-29T03:51:43;7.60;;;7.20;;
2622;SDS011;1321;48.690;9.022;2023-12-29T03:54:12;7.50;;;7.10;;
2622;SDS011;1321;48.690;9.022;2023-12-29T03:56:40;7.10;;;6.60;;
2622;SDS011;1321;48.690;9.022;2023-12-29T03:59:09;7.20;;;7.00;;
2622;SDS011;1321;48.690;9.022;2023-12-29T04:01:37;7.60;;;7.20;;
2622;SDS011;1321;48.690;9.022;2023-12-29T04:04:05;8.00;;;7.67;;
2622;SDS011;1321;48.690;9.022;2023-12-29T04:06:33;7.07;;;6.87;;
2622;SDS011;1321;48.690;9.022;2023-12-29T04:09:03;7.83;;;7.53;;
2622;SDS011;1321;48.690;9.022;2023-12-29T04:11:31;7.67;;;7.37;;
2622;SDS011;1321;48.690;9.022;2023-12-29T04:13:59;7.60;;;7.30;;
2622;SDS011;1321;48.690;9.022;2023-12-29T04:16:28;7.40;;;7.20;;
2622;SDS011;1321;48.690;9.022;2023-12-29T04:18:56;6.83;;;6.63;;
2622;SDS011;1321;48.690;9.022;2023-12-29T04:21:24;7.53;;;7.23;;
2622;SDS011;1321;48.690;9.022;2023-12-29T04:23:52;7.60;;;7.30;;
2622;SDS011;1321;48.690;9.022;2023-12-29T04:26:22;8.00;;;7.70;;
2622;SDS011;1321;48.690;9.022;2023-12-29T04:28:50;7.83;;;7.53;;
2622;SDS011;1321;48.690;9.022;2023-12-29T04:31:18;7.40;;;6.90;;
2622;SDS011;1321;48.690;9.022;2023-12-29T04:33:46;7.83;;;7.53;;
2622;SDS011;1321;48.690;9.022;2023-12-29T04:36:14;8.20;;;7.50;;
2622;SDS011;1321;48.690;9.022;2023-12-29T04:38:43;7.60;;;7.30;;
2622;SDS011;1321;48.690;9.022;2023-12-29T04:41:11;7.93;;;7.50;;
2622;SDS011;1321;48.690;9.022;2023-12-29T04:43:41;7.80;;;7.50;;
2622;SDS011;1321;48.690;9.022;2023-12-29T04:46:09;8.23;;;7.93;;
2622;SDS011;1321;48.690;9.022;2023-12-29T04:48:37;8.73;;;8.33;;
2622;SDS011;1321;48.690;9.022;2023-12-29T04:51:05;8.57;;;8.20;;
2622;SDS011;1321;48.690;9.022;2023-12-29T04:53:34;8.27;;;7.77;;
2622;SDS011;1321;48.690;9.022;2023-12-29T04:56:02;8.10;;;7.80;;
2622;SDS011;1321;48.690;9.022;2023-12-29T04:58:30;8.40;;;8.10;;
2622;SDS011;1321;48.690;9.022;2023-12-29T05:01:00;8.77;;;8.40;;
2622;SDS011;1321;48.690;9.022;2023-12-29T05:03:28;8.50;;;8.20;;
2622;SDS011;1321;48.690;9.022;2023-12-29T05:05:57;8.20;;;7.90;;
2622;SDS011;1321;48.690;9.022;2023-12-29T05:08:25;8.23;;;7.93;;
2622;SDS011;1321;48.690;9.022;2023-12-29T05:10:53;8.60;;;8.30;;
2622;SDS011;1321;48.690;9.022;2023-12-29T05:13:21;8.47;;;8.20;;
2622;SDS011;1321;48.690;9.022;2023-12-29T05:15:50;9.10;;;8.60;;
2622;SDS011;1321;48.690;9.022;2023-12-29T05:18:19;9.60;;;9.30;;
2622;SDS011;1321;48.690;9.022;2023-12-29T05:20:48;8.00;;;7.80;;
2622;SDS011;1321;48.690;9.022;2023-12-29T05:23:16;8.30;;;8.10;;
2622;SDS011;1321;48.690;9.022;2023-12-29T05:25:44;8.90;;;8.60;;
2622;SDS011;1321;48.690;9.022;2023-12-29T05:28:12;8.43;;;8.13;;
2622;SDS011;1321;48.690;9.022;2023-12-29T05:30:40;9.57;;;9.20;;
2622;SDS011;1321;48.690;9.022;2023-12-29T05:33:09;8.93;;;8.63;;
2622;SDS011;1321;48.690;9.022;2023-12-29T05:35:38;9.43;;;9.03;;
2622;SDS011;1321;48.690;9.022;2023-12-29T05:38:06;8.80;;;8.50;;
2622;SDS011;1321;48.690;9.022;2023-12-29T05:40:35;9.53;;;9.13;;
2622;SDS011;1321;48.690;9.022;2023-12-29T05:43:03;8.60;;;8.30;;
2622;SDS011;1321;48.690;9.022;2023-12-29T05:45:31;9.23;;;8.87;;
2622;SDS011;1321;48.690;9.022;2023-12-29T05:48:00;9.40;;;9.00;;
2622;SDS011;1321;48.690;9.022;2023-12-29T05:50:29;9.00;;;8.70;;
2622;SDS011;1321;48.690;9.022;2023-12-29T05:52:58;9.43;;;8.93;;
2622;SDS011;1321;48.690;9.022;2023-12-29T05:55:27;9.00;;;8.70;;
2622;SDS011;1321;48.690;9.022;2023-12-29T05:57:55;9.13;;;8.90;;
2622;SDS011;1321;48.690;9.022;2023-12-29T06:00:24;8.83;;;8.57;;
2622;SDS011;1321;48.690;9.022;2023-12-29T06:02:52;8.67;;;8.40;;
2622;SDS011;1321;48.690;9.022;2023-12-29T06:05:20;9.50;;;8.80;;
2622;SDS011;1321;48.690;9.022;2023-12-29T06:07:48;9.77;;;9.47;;
2622;SDS011;1321;48.690;9.022;2023-12-29T06:10:18;9.60;;;9.20;;
2622;SDS011;1321;48.690;9.022;2023-12-29T06:12:46;9.77;;;9.37;;
2622;SDS011;1321;48.690;9.022;2023-12-29T06:15:15;9.30;;;9.00;;
2622;SDS011;1321;48.690;9.022;2023-12-29T06:17:43;9.33;;;9.03;;
2622;SDS011;1321;48.690;9.022;2023-12-29T06:20:12;9.57;;;9.27;;
2622;SDS011;1321;48.690;9.022;2023-12-29T06:22:40;8.57;;;8.37;;
2622;SDS011;1321;48.690;9.022;2023-12-29T06:25:09;9.47;;;9.07;;
2622;SDS011;1321;48.690;9.022;2023-12-29T06:27:39;9.63;;;9.23;;
2622;SDS011;1321;48.690;9.022;2023-12-29T06:30:08;9.47;;;9.27;;
2622;SDS011;1321;48.690;9.022;2023-12-29T06:32:37;9.73;;;9.33;;
2622;SDS011;1321;48.690;9.022;2023-12-29T06:35:06;9.77;;;9.57;;
2622;SDS011;1321;48.690;9.022;2023-12-29T06:37:36;10.43;;;9.87;;
2622;SDS011;1321;48.690;9.022;2023-12-29T06:40:06;9.77;;;9.47;;
2622;SDS011;1321;48.690;9.022;2023-12-29T06:42:35;9.50;;;9.13;;
2622;SDS011;1321;48.690;9.022;2023-12-29T06:45:05;9.90;;;9.60;;
2622;SDS011;1321;48.690;9.022;2023-12-29T06:47:35;10.27;;;9.87;;
2622;SDS011;1321;48.690;9.022;2023-12-29T06:50:04;9.70;;;9.50;;
2622;SDS011;1321;48.690;9.022;2023-12-29T06:52:33;9.97;;;9.50;;
2622;SDS011;1321;48.690;9.022;2023-12-29T06:55:02;9.77;;;9.37;;
2622;SDS011;1321;48.690;9.022;2023-12-29T06:57:30;10.00;;;9.70;;
2622;SDS011;1321;48.690;9.022;2023-12-29T06:59:59;9.80;;;9.50;;
2622;SDS011;1321;48.690;9.022;2023-12-29T07:02:28;9.50;;;9.30;;
2622;SDS011;1321;48.690;9.022;2023-12-29T07:04:57;9.23;;;8.93;;
2622;SDS011;1321;48.690;9.022;2023-12-29T07:07:25;9.50;;;9.20;;
2622;SDS011;1321;48.690;9.022;2023-12-29T07:09:53;9.77;;;9.37;;
2622;SDS011;1321;48.690;9.022;2023-12-29T07:12:22;9.00;;;8.80;;
2622;SDS011;1321;48.690;9.022;2023-12-29T07:14:50;9.20;;;8.90;;
2622;SDS011;1321;48.690;9.022;2023-12-29T07:17:20;9.30;;;9.00;;
2622;SDS011;1321;48.690;9.022;2023-12-29T07:19:50;9.20;;;9.00;;
2622;SDS011;1321;48.690;9.022;2023-12-29T07:22:18;9.37;;;9.07;;
2622;SDS011;1321;48.690;9.022;2023-12-29T07:24:47;9.30;;;9.00;;
2622;SDS011;1321;48.690;9.022;2023-12-29T07:27:16;9.07;;;8.87;;
2622;SDS011;1321;48.690;9.022;2023-12-29T07:29:44;9.73;;;9.43;;
2622;SDS011;1321;48.690;9.022;2023-12-29T07:32:12;10.00;;;9.70;;
2622;SDS011;1321;48.690;9.022;2023-12-29T07:34:41;9.80;;;9.50;;
2622;SDS011;1321;48.690;9.022;2023-12-29T07:37:12;9.80;;;9.50;;
2622;SDS011;1321;48.690;9.022;2023-12-29T07:39:40;9.90;;;9.50;;
2622;SDS011;1321;48.690;9.022;2023-12-29T07:42:09;9.70;;;9.40;;
2622;SDS011;1321;48.690;9.022;2023-12-29T07:44:38;9.50;;;9.20;;
2622;SDS011;1321;48.690;9.022;2023-12-29T07:47:07;10.33;;;9.73;;
2622;SDS011;1321;48.690;9.022;2023-12-29T07:49:37;9.17;;;8.97;;
2622;SDS011;1321;48.690;9.022;2023-12-29T07:52:05;9.83;;;9.50;;
2622;SDS011;1321;48.690;9.022;2023-12-29T07:54:35;9.37;;;9.07;;
2622;SDS011;1321;48.690;9.022;2023-12-29T07:57:03;9.87;;;9.57;;
2622;SDS011;1321;48.690;9.022;2023-12-29T07:59:32;10.00;;;9.50;;
2622;SDS011;1321;48.690;9.022;2023-12-29T08:02:00;9.27;;;8.97;;
2622;SDS011;1321;48.690;9.022;2023-12-29T08:04:28;9.77;;;9.37;;
2622;SDS011;1321;48.690;9.022;2023-12-29T08:06:56;8.80;;;8.60;;
2622;SDS011;1321;48.690;9.022;2023-12-29T08:09:25;9.30;;;9.00;;
2622;SDS011;1321;48.690;9.022;2023-12-29T08:11:54;9.37;;;9.17;;
2622;SDS011;1321;48.690;9.022;2023-12-29T08:14:23;9.87;;;9.57;;
2622;SDS011;1321;48.690;9.022;2023-12-29T08:16:51;9.23;;;9.03;;
2622;SDS011;1321;48.690;9.022;2023-12-29T08:19:19;9.93;;;9.63;;
2622;SDS011;1321;48.690;9.022;2023-12-29T08:21:47;9.23;;;9.03;;
2622;SDS011;1321;48.690;9.022;2023-12-29T08:24:15;10.70;;;10.20;;
2622;SDS011;1321;48.690;9.022;2023-12-29T08:26:45;9.47;;;9.27;;
2622;SDS011;1321;48.690;9.022;2023-12-29T08:29:15;9.87;;;9.47;;
2622;SDS011;1321;48.690;9.022;2023-12-29T08:31:45;9.80;;;9.47;;
2622;SDS011;1321;48.690;9.022;2023-12-29T08:34:14;10.30;;;9.90;;
2622;SDS011;1321;48.690;9.022;2023-12-29T08:36:45;9.77;;;9.50;;
2622;SDS011;1321;48.690;9.022;2023-12-29T08:39:13;10.20;;;9.80;;
2622;SDS011;1321;48.690;9.022;2023-12-29T08:41:42;10.10;;;9.80;;
2622;SDS011;1321;48.690;9.022;2023-12-29T08:44:10;10.40;;;9.90;;
2622;SDS011;1321;48.690;9.022;2023-12-29T08:46:40;10.03;;;9.70;;
2622;SDS011;1321;48.690;9.022;2023-12-29T08:49:08;9.77;;;9.30;;
2622;SDS011;1321;48.690;9.022;2023-12-29T08:51:36;9.30;;;9.07;;
2622;SDS011;1321;48.690;9.022;2023-12-29T08:54:07;10.33;;;9.93;;
2622;SDS011;1321;48.690;9.022;2023-12-29T08:56:36;9.50;;;9.20;;
2622;SDS011;1321;48.690;9.022;2023-12-29T08:59:04;9.30;;;9.00;;
2622;SDS011;1321;48.690;9.022;2023-12-29T09:01:32;9.90;;;9.60;;
2622;SDS011;1321;48.690;9.022;2023-12-29T09:04:02;9.47;;;9.17;;
2622;SDS011;1321;48.690;9.022;2023-12-29T09:06:31;9.33;;;9.00;;
2622;SDS011;1321;48.690;9.022;2023-12-29T09:08:59;9.10;;;8.70;;
2622;SDS011;1321;48.690;9.022;2023-12-29T09:11:27;9.40;;;9.00;;
2622;SDS011;1321;48.690;9.022;2023-12-29T09:13:56;9.10;;;8.80;;
2622;SDS011;1321;48.690;9.022;2023-12-29T09:16:24;9.03;;;8.83;;
2622;SDS011;1321;48.690;9.022;2023-12-29T09:18:52;8.93;;;8.73;;
2622;SDS011;1321;48.690;9.022;2023-12-29T09:21:22;9.83;;;9.50;;
2622;SDS011;1321;48.690;9.022;2023-12-29T09:23:50;9.80;;;9.50;;
2622;SDS011;1321;48.690;9.022;2023-12-29T09:26:18;9.40;;;9.10;;
2622;SDS011;1321;48.690;9.022;2023-12-29T09:28:47;8.70;;;8.50;;
2622;SDS011;1321;48.690;9.022;2023-12-29T09:31:15;9.60;;;9.30;;
2622;SDS011;1321;48.690;9.022;2023-12-29T09:33:44;10.03;;;9.43;;
2622;SDS011;1321;48.690;9.022;2023-12-29T09:36:12;9.93;;;9.67;;
2622;SDS011;1321;48.690;9.022;2023-12-29T09:38:42;10.30;;;10.00;;
2622;SDS011;1321;48.690;9.022;2023-12-29T09:41:13;9.50;;;9.30;;
2622;SDS011;1321;48.690;9.022;2023-12-29T09:43:42;9.73;;;9.40;;
2622;SDS011;1321;48.690;9.022;2023-12-29T09:46:12;10.50;;;10.20;;
2622;SDS011;1321;48.690;9.022;2023-12-29T09:48:44;9.77;;;9.57;;
2622;SDS011;1321;48.690;9.022;2023-12-29T09:51:14;10.10;;;9.80;;
2622;SDS011;1321;48.690;9.022;2023-12-29T09:53:44;9.80;;;9.60;;
2622;SDS011;1321;48.690;9.022;2023-12-29T09:56:14;10.13;;;9.83;;
2622;SDS011;1321;48.690;9.022;2023-12-29T09:58:44;10.37;;;10.07;;
2622;SDS011;1321;48.690;9.022;2023-12-29T10:01:16;10.80;;;10.50;;
2622;SDS011;1321;48.690;9.022;2023-12-29T10:03:46;10.20;;;9.90;;
2622;SDS011;1321;48.690;9.022;2023-12-29T10:06:16;9.90;;;9.60;;
2622;SDS011;1321;48.690;9.022;2023-12-29T10:08:50;10.53;;;10.13;;
2622;SDS011;1321;48.690;9.022;2023-12-29T10:11:21;11.00;;;10.60;;
2622;SDS011;1321;48.690;9.022;2023-12-29T10:13:50;10.20;;;10.00;;
2622;SDS011;1321;48.690;9.022;2023-12-29T10:16:24;10.53;;;10.23;;
2622;SDS011;1321;48.690;9.022;2023-12-29T10:18:58;10.80;;;10.50;;
2622;SDS011;1321;48.690;9.022;2023-12-29T10:21:35;10.23;;;9.93;;
2622;SDS011;1321;48.690;9.022;2023-12-29T10:24:12;10.33;;;10.13;;
2622;SDS011;1321;48.690;9.022;2023-12-29T10:26:44;11.00;;;10.63;;
2622;SDS011;1321;48.690;9.022;2023-12-29T10:29:13;11.10;;;10.80;;
2622;SDS011;1321;48.690;9.022;2023-12-29T10:31:44;11.40;;;11.10;;
2622;SDS011;1321;48.690;9.022;2023-12-29T10:34:19;11.50;;;11.20;;
2622;SDS011;1321;48.690;9.022;2023-12-29T10:36:55;11.73;;;11.43;;
2622;SDS011;1321;48.690;9.022;2023-12-29T10:39:25;11.90;;;11.60;;
2622;SDS011;1321;48.690;9.022;2023-12-29T10:42:02;11.77;;;11.47;;
2622;SDS011;1321;48.690;9.022;2023-12-29T10:44:32;11.40;;;11.20;;
2622;SDS011;1321;48.690;9.022;2023-12-29T10:47:07;11.13;;;10.93;;
2622;SDS011;1321;48.690;9.022;2023-12-29T10:49:36;11.07;;;10.80;;
2622;SDS011;1321;48.690;9.022;2023-12-29T10:52:10;11.50;;;11.23;;
2622;SDS011;1321;48.690;9.022;2023-12-29T10:54:42;9.93;;;9.73;;
2622;SDS011;1321;48.690;9.022;2023-12-29T10:57:11;10.53;;;10.03;;
2622;SDS011;1321;48.690;9.022;2023-12-29T10:59:40;9.83;;;9.63;;
2622;SDS011;1321;48.690;9.022;2023-12-29T11:02:11;9.90;;;9.70;;
2622;SDS011;1321;48.690;9.022;2023-12-29T11:04:41;10.37;;;10.17;;
2622;SDS011;1321;48.690;9.022;2023-12-29T11:07:11;10.10;;;9.90;;
2622;SDS011;1321;48.690;9.022;2023-12-29T11:09:41;9.73;;;9.53;;
2622;SDS011;1321;48.690;9.022;2023-12-29T11:12:10;10.33;;;9.83;;
2622;SDS011;1321;48.690;9.022;2023-12-29T11:14:40;9.37;;;9.17;;
2622;SDS011;1321;48.690;9.022;2023-12-29T11:17:12;9.40;;;9.20;;
2622;SDS011;1321;48.690;9.022;2023-12-29T11:19:43;9.37;;;9.00;;
2622;SDS011;1321;48.690;9.022;2023-12-29T11:22:15;9.30;;;9.10;;
2622;SDS011;1321;48.690;9.022;2023-12-29T11:24:47;8.73;;;8.53;;
2622;SDS011;1321;48.690;9.022;2023-12-29T11:27:16;8.97;;;8.67;;
2622;SDS011;1321;48.690;9.022;2023-12-29T11:29:44;8.77;;;8.57;;
2622;SDS011;1321;48.690;9.022;2023-12-29T11:32:15;8.50;;;8.30;;
2622;SDS011;1321;48.690;9.022;2023-12-29T11:34:49;8.67;;;8.30;;
2622;SDS011;1321;48.690;9.022;2023-12-29T11:37:23;8.10;;;8.00;;
2622;SDS011;1321;48.690;9.022;2023-12-29T11:40:00;7.67;;;7.50;;
2622;SDS011;1321;48.690;9.022;2023-12-29T11:42:41;7.93;;;7.70;;
2622;SDS011;1321;48.690;9.022;2023-12-29T11:45:24;7.80;;;7.60;;
2622;SDS011;1321;48.690;9.022;2023-12-29T11:47:53;8.23;;;8.00;;
2622;SDS011;1321;48.690;9.022;2023-12-29T11:50:30;7.20;;;7.10;;
2622;SDS011;1321;48.690;9.022;2023-12-29T11:52:59;7.37;;;7.17;;
2622;SDS011;1321;48.690;9.022;2023-12-29T11:55:30;6.90;;;6.80;;
2622;SDS011;1321;48.690;9.022;2023-12-29T11:58:01;7.43;;;7.23;;
2622;SDS011;1321;48.690;9.022;2023-12-29T12:00:41;7.47;;;7.37;;
2622;SDS011;1321;48.690;9.022;2023-12-29T12:03:15;7.50;;;7.10;;
2622;SDS011;1321;48.690;9.022;2023-12-29T12:05:44;6.23;;;6.10;;
2622;SDS011;1321;48.690;9.022;2023-12-29T12:08:26;6.30;;;6.20;;
2622;SDS011;1321;48.690;9.022;2023-12-29T12:10:56;6.57;;;6.40;;
2622;SDS011;1321;48.690;9.022;2023-12-29T12:13:45;6.50;;;6.40;;
2622;SDS011;1321;48.690;9.022;2023-12-29T12:19:20;6.10;;;6.00;;
2622;SDS011;1321;48.690;9.022;2023-12-29T12:21:51;6.20;;;5.97;;
2622;SDS011;1321;48.690;9.022;2023-12-29T12:24:22;6.57;;;6.37;;
2622;SDS011;1321;48.690;9.022;2023-12-29T12:26:53;6.50;;;6.20;;
2622;SDS011;1321;48.690;9.022;2023-12-29T12:29:22;6.30;;;6.20;;
2622;SDS011;1321;48.690;9.022;2023-12-29T12:31:52;6.47;;;6.37;;
2622;SDS011;1321;48.690;9.022;2023-12-29T12:34:21;6.90;;;6.70;;
2622;SDS011;1321;48.690;9.022;2023-12-29T12:36:51;6.30;;;6.20;;
2622;SDS011;1321;48.690;9.022;2023-12-29T12:39:23;6.47;;;6.33;;
2622;SDS011;1321;48.690;9.022;2023-12-29T12:41:51;6.00;;;5.90;;
2622;SDS011;1321;48.690;9.022;2023-12-29T12:44:21;6.60;;;6.40;;
2622;SDS011;1321;48.690;9.022;2023-12-29T12:46:56;6.60;;;6.40;;
2622;SDS011;1321;48.690;9.022;2023-12-29T12:49:28;6.63;;;6.33;;
2622;SDS011;1321;48.690;9.022;2023-12-29T12:51:57;6.23;;;6.03;;
2622;SDS011;1321;48.690;9.022;2023-12-29T12:54:26;6.00;;;5.90;;
2622;SDS011;1321;48.690;9.022;2023-12-29T12:56:54;6.50;;;6.30;;
2622;SDS011;1321;48.690;9.022;2023-12-29T12:59:24;5.83;;;5.67;;
2622;SDS011;1321;48.690;9.022;2023-12-29T13:01:54;5.50;;;5.40;;
2622;SDS011;1321;48.690;9.022;2023-12-29T13:04:23;5.20;;;5.10;;
2622;SDS011;1321;48.690;9.022;2023-12-29T13:06:52;5.37;;;5.27;;
2622;SDS011;1321;48.690;9.022;2023-12-29T13:09:20;5.80;;;5.60;;
2622;SDS011;1321;48.690;9.022;2023-12-29T13:11:48;5.77;;;5.67;;
2622;SDS011;1321;48.690;9.022;2023-12-29T13:14:20;4.87;;;4.77;;
2622;SDS011;1321;48.690;9.022;2023-12-29T13:16:51;4.90;;;4.80;;
2622;SDS011;1321;48.690;9.022;2023-12-29T13:19:19;4.80;;;4.70;;
2622;SDS011;1321;48.690;9.022;2023-12-29T13:21:52;5.20;;;5.00;;
2622;SDS011;1321;48.690;9.022;2023-12-29T13:24:22;4.50;;;4.40;;
2622;SDS011;1321;48.690;9.022;2023-12-29T13:26:52;4.50;;;4.40;;
2622;SDS011;1321;48.690;9.022;2023-12-29T13:29:23;4.77;;;4.57;;
2622;SDS011;1321;48.690;9.022;2023-12-29T13:31:53;4.93;;;4.83;;
2622;SDS011;1321;48.690;9.022;2023-12-29T13:34:27;4.30;;;4.20;;
2622;SDS011;1321;48.690;9.022;2023-12-29T13:37:01;4.50;;;4.40;;
2622;SDS011;1321;48.690;9.022;2023-12-29T13:39:43;4.93;;;4.73;;
2622;SDS011;1321;48.690;9.022;2023-12-29T13:42:17;4.67;;;4.57;;
2622;SDS011;1321;48.690;9.022;2023-12-29T13:44:48;4.67;;;4.57;;
2622;SDS011;1321;48.690;9.022;2023-12-29T13:47:19;4.60;;;4.50;;
2622;SDS011;1321;48.690;9.022;2023-12-29T13:49:48;4.33;;;4.23;;
2622;SDS011;1321;48.690;9.022;2023-12-29T13:52:18;4.77;;;4.47;;
2622;SDS011;1321;48.690;9.022;2023-12-29T13:54:47;4.20;;;4.10;;
2622;SDS011;1321;48.690;9.022;2023-12-29T13:57:16;5.07;;;4.90;;
2622;SDS011;1321;48.690;9.022;2023-12-29T13:59:47;4.77;;;4.57;;
2622;SDS011;1321;48.690;9.022;2023-12-29T14:02:23;4.73;;;4.63;;
2622;SDS011;1321;48.690;9.022;2023-12-29T14:05:08;4.50;;;4.30;;
2622;SDS011;1321;48.690;9.022;2023-12-29T14:07:42;4.17;;;4.07;;
2622;SDS011;1321;48.690;9.022;2023-12-29T14:10:13;3.97;;;3.87;;
2622;SDS011;1321;48.690;9.022;2023-12-29T14:12:42;4.37;;;4.27;;
2622;SDS011;1321;48.690;9.022;2023-12-29T14:15:10;4.63;;;4.53;;
2622;SDS011;1321;48.690;9.022;2023-12-29T14:17:40;4.97;;;4.87;;
2622;SDS011;1321;48.690;9.022;2023-12-29T14:20:08;4.40;;;4.30;;
2622;SDS011;1321;48.690;9.022;2023-12-29T14:22:37;4.87;;;4.70;;
2622;SDS011;1321;48.690;9.022;2023-12-29T14:25:05;4.10;;;4.00;;
2622;SDS011;1321;48.690;9.022;2023-12-29T14:27:36;4.47;;;4.27;;
2622;SDS011;1321;48.690;9.022;2023-12-29T14:30:17;4.50;;;4.30;;
2622;SDS011;1321;48.690;9.022;2023-12-29T14:32:47;4.50;;;4.30;;
2622;SDS011;1321;48.690;9.022;2023-12-29T14:35:15;4.13;;;4.03;;
2622;SDS011;1321;48.690;9.022;2023-12-29T14:37:43;3.67;;;3.57;;
2622;SDS011;1321;48.690;9.022;2023-12-29T14:40:12;4.53;;;4.43;;
2622;SDS011;1321;48.690;9.022;2023-12-29T14:42:40;4.50;;;4.30;;
2622;SDS011;1321;48.690;9.022;2023-12-29T14:45:09;4.37;;;4.17;;
2622;SDS011;1321;48.690;9.022;2023-12-29T14:47:37;4.13;;;4.03;;
2622;SDS011;1321;48.690;9.022;2023-12-29T14:50:08;4.17;;;4.07;;
2622;SDS011;1321;48.690;9.022;2023-12-29T14:52:36;4.30;;;4.20;;
2622;SDS011;1321;48.690;9.022;2023-12-29T14:55:05;4.00;;;3.90;;
2622;SDS011;1321;48.690;9.022;2023-12-29T15:06:11;4.37;;;4.17;;
2622;SDS011;1321;48.690;9.022;2023-12-29T15:08:39;4.13;;;3.93;;
2622;SDS011;1321;48.690;9.022;2023-12-29T15:11:07;3.73;;;3.63;;
2622;SDS011;1321;48.690;9.022;2023-12-29T15:13:36;4.40;;;4.13;;
2622;SDS011;1321;48.690;9.022;2023-12-29T15:16:04;4.07;;;3.87;;
2622;SDS011;1321;48.690;9.022;2023-12-29T15:18:34;4.27;;;4.07;;
2622;SDS011;1321;48.690;9.022;2023-12-29T15:21:02;3.80;;;3.70;;
2622;SDS011;1321;48.690;9.022;2023-12-29T15:23:32;4.07;;;3.87;;
2622;SDS011;1321;48.690;9.022;2023-12-29T15:26:00;3.97;;;3.73;;
2622;SDS011;1321;48.690;9.022;2023-12-29T15:28:27;3.53;;;3.43;;
2622;SDS011;1321;48.690;9.022;2023-12-29T15:30:56;3.73;;;3.63;;
2622;SDS011;1321;48.690;9.022;2023-12-29T15:33:24;3.53;;;3.33;;
2622;SDS011;1321;48.690;9.022;2023-12-29T15:35:52;3.50;;;3.40;;
2622;SDS011;1321;48.690;9.022;2023-12-29T15:38:22;3.40;;;3.20;;
2622;SDS011;1321;48.690;9.022;2023-12-29T15:40:51;3.67;;;3.40;;